Terminal Aerodrome Forecast
Issued by NWS

Home | Current Version | Previous Version | Text Only | Print | Product List | Glossary On
Versions: 1 2 3 4 5 6 7 8 9 10 11 12 13 14
000
FTUS44 KJAN 240524
TAFHKS
TAF
KHKS 240524Z 2406/2506 14006KT P6SM SCT050 SCT150
     FM241400 14013G21KT P6SM BKN025
     FM241600 14016G22KT P6SM BKN035
     FM241900 15017G23KT P6SM VCTS SCT040CB BKN250
     FM250300 14012KT P6SM SCT100 OVC250=

USA.gov is the U.S. government's official web portal to all federal, state and local government web resources and services.